sensor_id;sensor_type;location;lat;lon;timestamp;P1;durP1;ratioP1;P2;durP2;ratioP2
46717;SDS011;32448;44.960;-0.698;2023-01-15T00:00:56;27.50;;;5.22;;
46717;SDS011;32448;44.960;-0.698;2023-01-15T00:03:24;11.32;;;2.97;;
46717;SDS011;32448;44.960;-0.698;2023-01-15T00:05:51;19.30;;;6.82;;
46717;SDS011;32448;44.960;-0.698;2023-01-15T00:08:19;16.38;;;5.93;;
46717;SDS011;32448;44.960;-0.698;2023-01-15T00:10:46;24.58;;;6.60;;
46717;SDS011;32448;44.960;-0.698;2023-01-15T00:13:14;18.30;;;4.07;;
46717;SDS011;32448;44.960;-0.698;2023-01-15T00:15:41;17.73;;;3.85;;
46717;SDS011;32448;44.960;-0.698;2023-01-15T00:18:09;17.08;;;5.50;;
46717;SDS011;32448;44.960;-0.698;2023-01-15T00:20:36;18.15;;;6.53;;
46717;SDS011;32448;44.960;-0.698;2023-01-15T00:23:03;13.80;;;3.88;;
46717;SDS011;32448;44.960;-0.698;2023-01-15T00:25:31;19.05;;;3.67;;
46717;SDS011;32448;44.960;-0.698;2023-01-15T00:28:17;20.27;;;3.80;;
46717;SDS011;32448;44.960;-0.698;2023-01-15T00:30:46;27.27;;;4.30;;
46717;SDS011;32448;44.960;-0.698;2023-01-15T00:33:13;19.92;;;3.33;;
46717;SDS011;32448;44.960;-0.698;2023-01-15T00:35:41;19.15;;;2.88;;
46717;SDS011;32448;44.960;-0.698;2023-01-15T00:38:08;13.30;;;2.47;;
46717;SDS011;32448;44.960;-0.698;2023-01-15T00:40:35;17.20;;;2.88;;
46717;SDS011;32448;44.960;-0.698;2023-01-15T00:43:02;19.17;;;2.95;;
46717;SDS011;32448;44.960;-0.698;2023-01-15T00:45:30;12.25;;;2.78;;
46717;SDS011;32448;44.960;-0.698;2023-01-15T00:47:57;16.90;;;2.50;;
46717;SDS011;32448;44.960;-0.698;2023-01-15T00:50:25;17.00;;;2.35;;
46717;SDS011;32448;44.960;-0.698;2023-01-15T00:52:53;11.88;;;2.10;;
46717;SDS011;32448;44.960;-0.698;2023-01-15T00:55:20;15.40;;;1.90;;
46717;SDS011;32448;44.960;-0.698;2023-01-15T00:57:48;10.52;;;1.98;;
46717;SDS011;32448;44.960;-0.698;2023-01-15T01:00:16;8.43;;;2.05;;
46717;SDS011;32448;44.960;-0.698;2023-01-15T01:02:44;9.25;;;1.52;;
46717;SDS011;32448;44.960;-0.698;2023-01-15T01:05:12;13.98;;;1.83;;
46717;SDS011;32448;44.960;-0.698;2023-01-15T01:07:40;13.82;;;1.83;;
46717;SDS011;32448;44.960;-0.698;2023-01-15T01:10:08;9.30;;;1.40;;
46717;SDS011;32448;44.960;-0.698;2023-01-15T01:12:35;7.68;;;1.35;;
46717;SDS011;32448;44.960;-0.698;2023-01-15T01:15:03;10.13;;;1.90;;
46717;SDS011;32448;44.960;-0.698;2023-01-15T01:17:31;10.07;;;1.52;;
46717;SDS011;32448;44.960;-0.698;2023-01-15T01:19:59;18.80;;;2.55;;
46717;SDS011;32448;44.960;-0.698;2023-01-15T01:22:27;10.32;;;1.55;;
46717;SDS011;32448;44.960;-0.698;2023-01-15T01:24:54;13.25;;;1.65;;
46717;SDS011;32448;44.960;-0.698;2023-01-15T01:27:22;13.50;;;1.83;;
46717;SDS011;32448;44.960;-0.698;2023-01-15T01:29:49;9.63;;;1.58;;
46717;SDS011;32448;44.960;-0.698;2023-01-15T01:32:17;11.13;;;2.08;;
46717;SDS011;32448;44.960;-0.698;2023-01-15T01:34:47;12.48;;;1.70;;
46717;SDS011;32448;44.960;-0.698;2023-01-15T01:37:14;8.38;;;1.10;;
46717;SDS011;32448;44.960;-0.698;2023-01-15T01:39:43;8.82;;;1.30;;
46717;SDS011;32448;44.960;-0.698;2023-01-15T01:42:11;5.07;;;0.77;;
46717;SDS011;32448;44.960;-0.698;2023-01-15T01:47:12;5.18;;;0.65;;
46717;SDS011;32448;44.960;-0.698;2023-01-15T01:49:45;3.28;;;0.63;;
46717;SDS011;32448;44.960;-0.698;2023-01-15T01:52:18;5.40;;;1.02;;
46717;SDS011;32448;44.960;-0.698;2023-01-15T01:54:50;5.85;;;0.65;;
46717;SDS011;32448;44.960;-0.698;2023-01-15T01:57:18;2.38;;;0.57;;
46717;SDS011;32448;44.960;-0.698;2023-01-15T01:59:48;3.28;;;0.40;;
46717;SDS011;32448;44.960;-0.698;2023-01-15T02:02:17;6.63;;;0.63;;
46717;SDS011;32448;44.960;-0.698;2023-01-15T02:04:48;4.00;;;0.60;;
46717;SDS011;32448;44.960;-0.698;2023-01-15T02:07:16;2.53;;;0.50;;
46717;SDS011;32448;44.960;-0.698;2023-01-15T02:09:43;1.95;;;0.70;;
46717;SDS011;32448;44.960;-0.698;2023-01-15T02:12:30;4.22;;;0.50;;
46717;SDS011;32448;44.960;-0.698;2023-01-15T02:17:55;2.80;;;0.60;;
46717;SDS011;32448;44.960;-0.698;2023-01-15T02:20:45;3.90;;;0.70;;
46717;SDS011;32448;44.960;-0.698;2023-01-15T02:34:55;2.85;;;0.35;;
46717;SDS011;32448;44.960;-0.698;2023-01-15T02:37:31;4.50;;;0.70;;
46717;SDS011;32448;44.960;-0.698;2023-01-15T02:40:04;2.53;;;0.38;;
46717;SDS011;32448;44.960;-0.698;2023-01-15T02:42:33;2.55;;;0.30;;
46717;SDS011;32448;44.960;-0.698;2023-01-15T02:45:04;2.40;;;0.38;;
46717;SDS011;32448;44.960;-0.698;2023-01-15T02:47:35;1.83;;;0.30;;
46717;SDS011;32448;44.960;-0.698;2023-01-15T02:50:08;0.60;;;0.35;;
46717;SDS011;32448;44.960;-0.698;2023-01-15T02:52:41;1.02;;;0.65;;
46717;SDS011;32448;44.960;-0.698;2023-01-15T02:55:18;2.25;;;0.32;;
46717;SDS011;32448;44.960;-0.698;2023-01-15T02:57:51;2.33;;;0.47;;
46717;SDS011;32448;44.960;-0.698;2023-01-15T03:00:23;1.50;;;0.30;;
46717;SDS011;32448;44.960;-0.698;2023-01-15T03:02:57;1.52;;;0.40;;
46717;SDS011;32448;44.960;-0.698;2023-01-15T03:05:42;2.30;;;0.40;;
46717;SDS011;32448;44.960;-0.698;2023-01-15T03:08:18;4.47;;;0.40;;
46717;SDS011;32448;44.960;-0.698;2023-01-15T03:11:03;1.75;;;0.28;;
46717;SDS011;32448;44.960;-0.698;2023-01-15T03:13:54;3.90;;;0.70;;
46717;SDS011;32448;44.960;-0.698;2023-01-15T03:16:52;2.38;;;0.35;;
46717;SDS011;32448;44.960;-0.698;2023-01-15T03:22:03;4.45;;;0.60;;
46717;SDS011;32448;44.960;-0.698;2023-01-15T03:24:46;2.83;;;0.95;;
46717;SDS011;32448;44.960;-0.698;2023-01-15T03:27:23;3.50;;;0.73;;
46717;SDS011;32448;44.960;-0.698;2023-01-15T03:29:57;3.90;;;0.50;;
46717;SDS011;32448;44.960;-0.698;2023-01-15T03:32:28;3.78;;;0.55;;
46717;SDS011;32448;44.960;-0.698;2023-01-15T03:34:57;2.28;;;0.50;;
46717;SDS011;32448;44.960;-0.698;2023-01-15T03:37:27;5.00;;;0.60;;
46717;SDS011;32448;44.960;-0.698;2023-01-15T03:39:55;7.50;;;0.90;;
46717;SDS011;32448;44.960;-0.698;2023-01-15T03:42:34;6.13;;;0.68;;
46717;SDS011;32448;44.960;-0.698;2023-01-15T03:45:46;8.10;;;1.05;;
46717;SDS011;32448;44.960;-0.698;2023-01-15T03:50:59;7.18;;;0.88;;
46717;SDS011;32448;44.960;-0.698;2023-01-15T03:56:13;4.43;;;1.10;;
46717;SDS011;32448;44.960;-0.698;2023-01-15T03:58:52;6.43;;;1.10;;
46717;SDS011;32448;44.960;-0.698;2023-01-15T04:01:52;10.15;;;1.50;;
46717;SDS011;32448;44.960;-0.698;2023-01-15T04:04:22;6.70;;;1.33;;
46717;SDS011;32448;44.960;-0.698;2023-01-15T04:06:53;7.95;;;1.20;;
46717;SDS011;32448;44.960;-0.698;2023-01-15T04:09:21;9.32;;;1.10;;
46717;SDS011;32448;44.960;-0.698;2023-01-15T04:11:53;9.45;;;1.27;;
46717;SDS011;32448;44.960;-0.698;2023-01-15T04:14:24;8.65;;;1.60;;
46717;SDS011;32448;44.960;-0.698;2023-01-15T04:16:53;9.38;;;1.50;;
46717;SDS011;32448;44.960;-0.698;2023-01-15T04:19:22;9.65;;;1.60;;
46717;SDS011;32448;44.960;-0.698;2023-01-15T04:22:02;5.95;;;1.20;;
46717;SDS011;32448;44.960;-0.698;2023-01-15T04:24:30;10.27;;;1.95;;
46717;SDS011;32448;44.960;-0.698;2023-01-15T04:26:57;10.00;;;1.65;;
46717;SDS011;32448;44.960;-0.698;2023-01-15T04:29:25;7.07;;;1.52;;
46717;SDS011;32448;44.960;-0.698;2023-01-15T04:31:52;5.82;;;1.10;;
46717;SDS011;32448;44.960;-0.698;2023-01-15T04:34:27;8.02;;;1.25;;
46717;SDS011;32448;44.960;-0.698;2023-01-15T04:36:55;8.05;;;0.98;;
46717;SDS011;32448;44.960;-0.698;2023-01-15T04:39:23;11.40;;;1.70;;
46717;SDS011;32448;44.960;-0.698;2023-01-15T04:41:50;9.27;;;1.25;;
46717;SDS011;32448;44.960;-0.698;2023-01-15T04:44:36;16.83;;;2.45;;
46717;SDS011;32448;44.960;-0.698;2023-01-15T04:47:04;7.25;;;1.10;;
46717;SDS011;32448;44.960;-0.698;2023-01-15T04:49:32;10.25;;;1.40;;
46717;SDS011;32448;44.960;-0.698;2023-01-15T04:52:01;8.65;;;2.45;;
46717;SDS011;32448;44.960;-0.698;2023-01-15T04:54:28;12.00;;;2.03;;
46717;SDS011;32448;44.960;-0.698;2023-01-15T04:56:56;12.07;;;2.15;;
46717;SDS011;32448;44.960;-0.698;2023-01-15T04:59:24;13.73;;;2.75;;
46717;SDS011;32448;44.960;-0.698;2023-01-15T05:01:53;9.40;;;1.50;;
46717;SDS011;32448;44.960;-0.698;2023-01-15T05:04:29;12.63;;;2.00;;
46717;SDS011;32448;44.960;-0.698;2023-01-15T05:06:59;17.50;;;2.00;;
46717;SDS011;32448;44.960;-0.698;2023-01-15T05:09:27;6.85;;;1.77;;
46717;SDS011;32448;44.960;-0.698;2023-01-15T05:11:55;10.68;;;1.55;;
46717;SDS011;32448;44.960;-0.698;2023-01-15T05:14:23;14.13;;;1.45;;
46717;SDS011;32448;44.960;-0.698;2023-01-15T05:16:50;8.57;;;1.13;;
46717;SDS011;32448;44.960;-0.698;2023-01-15T05:19:22;5.65;;;1.10;;
46717;SDS011;32448;44.960;-0.698;2023-01-15T05:21:51;9.10;;;1.05;;
46717;SDS011;32448;44.960;-0.698;2023-01-15T05:24:19;4.65;;;1.00;;
46717;SDS011;32448;44.960;-0.698;2023-01-15T05:26:46;5.88;;;1.15;;
46717;SDS011;32448;44.960;-0.698;2023-01-15T05:29:14;8.27;;;1.20;;
46717;SDS011;32448;44.960;-0.698;2023-01-15T05:31:41;5.80;;;1.40;;
46717;SDS011;32448;44.960;-0.698;2023-01-15T05:34:11;8.50;;;1.10;;
46717;SDS011;32448;44.960;-0.698;2023-01-15T05:36:39;9.18;;;1.25;;
46717;SDS011;32448;44.960;-0.698;2023-01-15T05:39:07;15.82;;;1.50;;
46717;SDS011;32448;44.960;-0.698;2023-01-15T05:41:34;10.73;;;1.05;;
46717;SDS011;32448;44.960;-0.698;2023-01-15T05:44:24;7.95;;;1.58;;
46717;SDS011;32448;44.960;-0.698;2023-01-15T05:46:54;8.95;;;1.30;;
46717;SDS011;32448;44.960;-0.698;2023-01-15T05:49:24;10.65;;;1.08;;
46717;SDS011;32448;44.960;-0.698;2023-01-15T05:51:54;6.15;;;0.90;;
46717;SDS011;32448;44.960;-0.698;2023-01-15T05:54:23;6.88;;;0.90;;
46717;SDS011;32448;44.960;-0.698;2023-01-15T05:56:52;5.90;;;1.02;;
46717;SDS011;32448;44.960;-0.698;2023-01-15T05:59:21;4.47;;;1.10;;
46717;SDS011;32448;44.960;-0.698;2023-01-15T06:01:51;11.13;;;1.17;;
46717;SDS011;32448;44.960;-0.698;2023-01-15T06:04:19;6.63;;;0.90;;
46717;SDS011;32448;44.960;-0.698;2023-01-15T06:06:48;10.23;;;1.20;;
46717;SDS011;32448;44.960;-0.698;2023-01-15T06:09:17;6.85;;;0.90;;
46717;SDS011;32448;44.960;-0.698;2023-01-15T06:11:45;3.65;;;0.80;;
46717;SDS011;32448;44.960;-0.698;2023-01-15T06:14:13;11.43;;;1.70;;
46717;SDS011;32448;44.960;-0.698;2023-01-15T06:16:41;6.53;;;0.93;;
46717;SDS011;32448;44.960;-0.698;2023-01-15T06:19:08;8.55;;;1.27;;
46717;SDS011;32448;44.960;-0.698;2023-01-15T06:21:38;10.45;;;1.45;;
46717;SDS011;32448;44.960;-0.698;2023-01-15T06:24:06;8.75;;;1.40;;
46717;SDS011;32448;44.960;-0.698;2023-01-15T06:26:34;11.88;;;1.88;;
46717;SDS011;32448;44.960;-0.698;2023-01-15T06:29:02;11.75;;;1.33;;
46717;SDS011;32448;44.960;-0.698;2023-01-15T06:31:29;12.60;;;1.30;;
46717;SDS011;32448;44.960;-0.698;2023-01-15T06:33:58;9.77;;;1.65;;
46717;SDS011;32448;44.960;-0.698;2023-01-15T06:36:31;7.05;;;0.98;;
46717;SDS011;32448;44.960;-0.698;2023-01-15T06:38:59;7.40;;;1.20;;
46717;SDS011;32448;44.960;-0.698;2023-01-15T06:41:30;9.57;;;1.27;;
46717;SDS011;32448;44.960;-0.698;2023-01-15T06:44:17;9.15;;;1.75;;
46717;SDS011;32448;44.960;-0.698;2023-01-15T06:47:13;45.72;;;10.63;;
46717;SDS011;32448;44.960;-0.698;2023-01-15T06:49:54;21.60;;;4.45;;
46717;SDS011;32448;44.960;-0.698;2023-01-15T06:52:24;10.60;;;1.75;;
46717;SDS011;32448;44.960;-0.698;2023-01-15T06:54:53;12.65;;;2.97;;
46717;SDS011;32448;44.960;-0.698;2023-01-15T06:57:20;20.35;;;5.47;;
46717;SDS011;32448;44.960;-0.698;2023-01-15T06:59:48;43.85;;;9.68;;
46717;SDS011;32448;44.960;-0.698;2023-01-15T07:02:16;50.60;;;12.70;;
46717;SDS011;32448;44.960;-0.698;2023-01-15T07:04:44;122.38;;;28.02;;
46717;SDS011;32448;44.960;-0.698;2023-01-15T07:07:13;152.20;;;34.90;;
46717;SDS011;32448;44.960;-0.698;2023-01-15T07:09:43;103.63;;;25.27;;
46717;SDS011;32448;44.960;-0.698;2023-01-15T07:12:11;68.20;;;17.77;;
46717;SDS011;32448;44.960;-0.698;2023-01-15T07:14:38;71.95;;;19.63;;
46717;SDS011;32448;44.960;-0.698;2023-01-15T07:17:06;57.10;;;14.15;;
46717;SDS011;32448;44.960;-0.698;2023-01-15T07:19:33;35.42;;;9.82;;
46717;SDS011;32448;44.960;-0.698;2023-01-15T07:22:01;60.00;;;13.57;;
46717;SDS011;32448;44.960;-0.698;2023-01-15T07:24:28;22.55;;;5.05;;
46717;SDS011;32448;44.960;-0.698;2023-01-15T07:26:56;18.05;;;4.88;;
46717;SDS011;32448;44.960;-0.698;2023-01-15T07:29:23;18.30;;;4.45;;
46717;SDS011;32448;44.960;-0.698;2023-01-15T07:31:51;10.63;;;3.30;;
46717;SDS011;32448;44.960;-0.698;2023-01-15T07:34:19;9.23;;;2.50;;
46717;SDS011;32448;44.960;-0.698;2023-01-15T07:36:51;10.57;;;2.03;;
46717;SDS011;32448;44.960;-0.698;2023-01-15T07:39:29;10.85;;;1.92;;
46717;SDS011;32448;44.960;-0.698;2023-01-15T07:41:59;11.93;;;2.47;;
46717;SDS011;32448;44.960;-0.698;2023-01-15T07:44:59;7.95;;;1.17;;
46717;SDS011;32448;44.960;-0.698;2023-01-15T07:47:56;5.80;;;1.20;;
46717;SDS011;32448;44.960;-0.698;2023-01-15T07:50:46;6.80;;;1.33;;
46717;SDS011;32448;44.960;-0.698;2023-01-15T07:53:18;12.02;;;1.83;;
46717;SDS011;32448;44.960;-0.698;2023-01-15T07:55:47;6.00;;;1.20;;
46717;SDS011;32448;44.960;-0.698;2023-01-15T07:58:16;8.23;;;1.20;;
46717;SDS011;32448;44.960;-0.698;2023-01-15T08:00:45;10.18;;;1.42;;
46717;SDS011;32448;44.960;-0.698;2023-01-15T08:03:18;12.23;;;1.80;;
46717;SDS011;32448;44.960;-0.698;2023-01-15T08:05:48;11.07;;;1.75;;
46717;SDS011;32448;44.960;-0.698;2023-01-15T08:08:18;5.43;;;1.00;;
46717;SDS011;32448;44.960;-0.698;2023-01-15T08:10:49;7.43;;;1.10;;
46717;SDS011;32448;44.960;-0.698;2023-01-15T08:16:05;9.40;;;1.65;;
46717;SDS011;32448;44.960;-0.698;2023-01-15T08:18:41;8.98;;;1.00;;
46717;SDS011;32448;44.960;-0.698;2023-01-15T08:21:21;6.13;;;1.20;;
46717;SDS011;32448;44.960;-0.698;2023-01-15T08:23:53;5.35;;;1.38;;
46717;SDS011;32448;44.960;-0.698;2023-01-15T08:26:25;5.10;;;1.30;;
46717;SDS011;32448;44.960;-0.698;2023-01-15T08:28:54;5.90;;;1.10;;
46717;SDS011;32448;44.960;-0.698;2023-01-15T08:31:28;3.15;;;0.80;;
46717;SDS011;32448;44.960;-0.698;2023-01-15T08:34:06;4.60;;;1.20;;
46717;SDS011;32448;44.960;-0.698;2023-01-15T08:36:36;5.18;;;1.10;;
46717;SDS011;32448;44.960;-0.698;2023-01-15T08:39:11;4.72;;;1.55;;
46717;SDS011;32448;44.960;-0.698;2023-01-15T08:41:40;11.40;;;4.47;;
46717;SDS011;32448;44.960;-0.698;2023-01-15T08:44:22;10.73;;;4.70;;
46717;SDS011;32448;44.960;-0.698;2023-01-15T08:47:23;14.18;;;5.68;;
46717;SDS011;32448;44.960;-0.698;2023-01-15T08:50:06;26.48;;;11.80;;
46717;SDS011;32448;44.960;-0.698;2023-01-15T08:52:47;20.80;;;9.00;;
46717;SDS011;32448;44.960;-0.698;2023-01-15T08:55:23;10.80;;;4.45;;
46717;SDS011;32448;44.960;-0.698;2023-01-15T08:58:10;8.10;;;3.42;;
46717;SDS011;32448;44.960;-0.698;2023-01-15T09:00:46;8.82;;;2.28;;
46717;SDS011;32448;44.960;-0.698;2023-01-15T09:04:01;7.05;;;1.75;;
46717;SDS011;32448;44.960;-0.698;2023-01-15T09:06:34;5.85;;;1.60;;
46717;SDS011;32448;44.960;-0.698;2023-01-15T09:09:02;7.43;;;1.90;;
46717;SDS011;32448;44.960;-0.698;2023-01-15T09:11:43;7.22;;;3.30;;
46717;SDS011;32448;44.960;-0.698;2023-01-15T09:14:13;17.00;;;6.53;;
46717;SDS011;32448;44.960;-0.698;2023-01-15T09:17:02;15.77;;;5.90;;
46717;SDS011;32448;44.960;-0.698;2023-01-15T09:19:38;7.75;;;3.92;;
46717;SDS011;32448;44.960;-0.698;2023-01-15T09:22:06;11.32;;;5.15;;
46717;SDS011;32448;44.960;-0.698;2023-01-15T09:24:33;8.07;;;4.22;;
46717;SDS011;32448;44.960;-0.698;2023-01-15T09:27:01;9.25;;;4.18;;
46717;SDS011;32448;44.960;-0.698;2023-01-15T09:29:28;11.95;;;3.78;;
46717;SDS011;32448;44.960;-0.698;2023-01-15T09:31:56;10.63;;;4.00;;
46717;SDS011;32448;44.960;-0.698;2023-01-15T09:34:24;10.27;;;5.25;;
46717;SDS011;32448;44.960;-0.698;2023-01-15T09:36:52;9.85;;;3.90;;
46717;SDS011;32448;44.960;-0.698;2023-01-15T09:39:19;5.93;;;2.70;;
46717;SDS011;32448;44.960;-0.698;2023-01-15T09:47:39;25.77;;;11.73;;
46717;SDS011;32448;44.960;-0.698;2023-01-15T09:53:42;54.70;;;26.75;;
46717;SDS011;32448;44.960;-0.698;2023-01-15T09:56:21;55.53;;;27.45;;
46717;SDS011;32448;44.960;-0.698;2023-01-15T09:59:04;47.28;;;21.50;;
46717;SDS011;32448;44.960;-0.698;2023-01-15T10:02:02;31.15;;;15.50;;
46717;SDS011;32448;44.960;-0.698;2023-01-15T10:04:44;32.63;;;16.13;;
46717;SDS011;32448;44.960;-0.698;2023-01-15T10:07:24;31.85;;;14.25;;
46717;SDS011;32448;44.960;-0.698;2023-01-15T10:10:23;23.65;;;11.88;;
46717;SDS011;32448;44.960;-0.698;2023-01-15T10:16:11;15.75;;;6.35;;
46717;SDS011;32448;44.960;-0.698;2023-01-15T10:18:55;23.80;;;8.30;;
46717;SDS011;32448;44.960;-0.698;2023-01-15T10:24:54;23.75;;;9.02;;
46717;SDS011;32448;44.960;-0.698;2023-01-15T10:27:45;19.17;;;6.97;;
46717;SDS011;32448;44.960;-0.698;2023-01-15T10:30:45;15.82;;;6.45;;
46717;SDS011;32448;44.960;-0.698;2023-01-15T10:33:28;19.90;;;7.25;;
46717;SDS011;32448;44.960;-0.698;2023-01-15T10:36:08;18.55;;;6.70;;
46717;SDS011;32448;44.960;-0.698;2023-01-15T10:42:15;20.58;;;7.55;;
46717;SDS011;32448;44.960;-0.698;2023-01-15T10:45:10;18.23;;;5.72;;
46717;SDS011;32448;44.960;-0.698;2023-01-15T10:47:41;20.23;;;3.95;;
46717;SDS011;32448;44.960;-0.698;2023-01-15T10:50:15;17.45;;;2.88;;
46717;SDS011;32448;44.960;-0.698;2023-01-15T10:52:46;26.92;;;4.10;;
46717;SDS011;32448;44.960;-0.698;2023-01-15T10:55:19;24.20;;;3.65;;
46717;SDS011;32448;44.960;-0.698;2023-01-15T11:00:39;16.48;;;4.65;;
46717;SDS011;32448;44.960;-0.698;2023-01-15T11:03:21;23.13;;;3.47;;
46717;SDS011;32448;44.960;-0.698;2023-01-15T11:06:02;23.08;;;5.63;;
46717;SDS011;32448;44.960;-0.698;2023-01-15T11:08:31;18.95;;;3.22;;
46717;SDS011;32448;44.960;-0.698;2023-01-15T11:11:23;12.48;;;3.38;;
46717;SDS011;32448;44.960;-0.698;2023-01-15T11:14:43;22.23;;;2.95;;
46717;SDS011;32448;44.960;-0.698;2023-01-15T11:23:07;17.08;;;2.35;;
46717;SDS011;32448;44.960;-0.698;2023-01-15T11:25:48;16.88;;;2.28;;
46717;SDS011;32448;44.960;-0.698;2023-01-15T11:28:28;15.02;;;2.90;;
46717;SDS011;32448;44.960;-0.698;2023-01-15T11:30:58;16.98;;;3.10;;
46717;SDS011;32448;44.960;-0.698;2023-01-15T11:33:26;14.95;;;2.85;;
46717;SDS011;32448;44.960;-0.698;2023-01-15T11:35:55;17.75;;;2.28;;
46717;SDS011;32448;44.960;-0.698;2023-01-15T11:38:27;14.52;;;2.75;;
46717;SDS011;32448;44.960;-0.698;2023-01-15T11:40:59;16.77;;;2.50;;
46717;SDS011;32448;44.960;-0.698;2023-01-15T11:43:31;24.55;;;5.47;;
46717;SDS011;32448;44.960;-0.698;2023-01-15T11:46:22;19.45;;;3.35;;
46717;SDS011;32448;44.960;-0.698;2023-01-15T11:49:19;16.55;;;1.98;;
46717;SDS011;32448;44.960;-0.698;2023-01-15T11:52:09;15.52;;;2.83;;
46717;SDS011;32448;44.960;-0.698;2023-01-15T11:54:45;13.20;;;2.55;;
46717;SDS011;32448;44.960;-0.698;2023-01-15T11:57:33;12.77;;;2.30;;
46717;SDS011;32448;44.960;-0.698;2023-01-15T12:00:03;12.35;;;2.13;;
46717;SDS011;32448;44.960;-0.698;2023-01-15T12:02:38;11.68;;;2.10;;
46717;SDS011;32448;44.960;-0.698;2023-01-15T12:05:30;11.95;;;2.20;;
46717;SDS011;32448;44.960;-0.698;2023-01-15T12:08:15;16.80;;;2.75;;
46717;SDS011;32448;44.960;-0.698;2023-01-15T12:11:49;16.77;;;2.40;;
46717;SDS011;32448;44.960;-0.698;2023-01-15T12:17:31;17.95;;;2.45;;
46717;SDS011;32448;44.960;-0.698;2023-01-15T12:23:05;18.98;;;2.80;;
46717;SDS011;32448;44.960;-0.698;2023-01-15T12:26:01;17.25;;;3.15;;
46717;SDS011;32448;44.960;-0.698;2023-01-15T12:28:36;13.23;;;2.60;;
46717;SDS011;32448;44.960;-0.698;2023-01-15T12:31:14;13.98;;;2.13;;
46717;SDS011;32448;44.960;-0.698;2023-01-15T12:36:43;15.45;;;2.80;;
46717;SDS011;32448;44.960;-0.698;2023-01-15T12:39:18;16.15;;;2.72;;
46717;SDS011;32448;44.960;-0.698;2023-01-15T12:41:51;19.55;;;2.80;;
46717;SDS011;32448;44.960;-0.698;2023-01-15T12:44:45;21.83;;;2.45;;
46717;SDS011;32448;44.960;-0.698;2023-01-15T12:47:27;12.63;;;2.03;;
46717;SDS011;32448;44.960;-0.698;2023-01-15T12:52:56;16.45;;;2.30;;
46717;SDS011;32448;44.960;-0.698;2023-01-15T12:56:04;14.10;;;2.38;;
46717;SDS011;32448;44.960;-0.698;2023-01-15T13:04:17;11.77;;;2.47;;
46717;SDS011;32448;44.960;-0.698;2023-01-15T13:07:03;10.90;;;2.20;;
46717;SDS011;32448;44.960;-0.698;2023-01-15T13:09:59;17.00;;;2.13;;
46717;SDS011;32448;44.960;-0.698;2023-01-15T13:12:48;15.68;;;2.70;;
46717;SDS011;32448;44.960;-0.698;2023-01-15T13:15:19;18.90;;;2.30;;
46717;SDS011;32448;44.960;-0.698;2023-01-15T13:26:31;17.73;;;3.53;;
46717;SDS011;32448;44.960;-0.698;2023-01-15T13:37:08;18.75;;;2.85;;
46717;SDS011;32448;44.960;-0.698;2023-01-15T13:39:44;16.70;;;2.58;;
46717;SDS011;32448;44.960;-0.698;2023-01-15T13:42:24;17.38;;;2.53;;
46717;SDS011;32448;44.960;-0.698;2023-01-15T13:45:06;12.82;;;2.47;;
46717;SDS011;32448;44.960;-0.698;2023-01-15T13:48:06;10.63;;;2.10;;
46717;SDS011;32448;44.960;-0.698;2023-01-15T13:50:54;21.25;;;2.50;;
46717;SDS011;32448;44.960;-0.698;2023-01-15T13:53:29;19.70;;;2.67;;
46717;SDS011;32448;44.960;-0.698;2023-01-15T13:56:09;17.92;;;2.35;;
46717;SDS011;32448;44.960;-0.698;2023-01-15T13:59:43;12.25;;;2.22;;
46717;SDS011;32448;44.960;-0.698;2023-01-15T14:05:00;13.68;;;2.22;;
46717;SDS011;32448;44.960;-0.698;2023-01-15T14:07:52;11.95;;;2.78;;
46717;SDS011;32448;44.960;-0.698;2023-01-15T14:10:31;17.63;;;2.67;;
46717;SDS011;32448;44.960;-0.698;2023-01-15T14:15:51;12.23;;;2.08;;
46717;SDS011;32448;44.960;-0.698;2023-01-15T14:30:11;17.98;;;3.00;;
46717;SDS011;32448;44.960;-0.698;2023-01-15T14:36:09;13.30;;;2.65;;
46717;SDS011;32448;44.960;-0.698;2023-01-15T14:38:46;14.73;;;1.73;;
46717;SDS011;32448;44.960;-0.698;2023-01-15T14:41:30;14.32;;;1.80;;
46717;SDS011;32448;44.960;-0.698;2023-01-15T14:44:31;10.15;;;2.03;;
46717;SDS011;32448;44.960;-0.698;2023-01-15T14:47:02;13.68;;;1.80;;
46717;SDS011;32448;44.960;-0.698;2023-01-15T14:49:44;13.05;;;2.20;;
46717;SDS011;32448;44.960;-0.698;2023-01-15T14:52:21;17.17;;;2.85;;
46717;SDS011;32448;44.960;-0.698;2023-01-15T14:54:51;15.75;;;2.30;;
46717;SDS011;32448;44.960;-0.698;2023-01-15T14:57:20;11.85;;;1.80;;
46717;SDS011;32448;44.960;-0.698;2023-01-15T14:59:52;7.03;;;1.67;;
46717;SDS011;32448;44.960;-0.698;2023-01-15T15:02:36;11.35;;;1.92;;
46717;SDS011;32448;44.960;-0.698;2023-01-15T15:05:13;10.35;;;2.25;;
46717;SDS011;32448;44.960;-0.698;2023-01-15T15:07:48;8.65;;;1.73;;
46717;SDS011;32448;44.960;-0.698;2023-01-15T15:10:29;8.75;;;1.75;;
46717;SDS011;32448;44.960;-0.698;2023-01-15T15:13:01;10.50;;;1.85;;
46717;SDS011;32448;44.960;-0.698;2023-01-15T15:18:47;13.27;;;2.08;;
46717;SDS011;32448;44.960;-0.698;2023-01-15T15:21:31;8.53;;;2.40;;
46717;SDS011;32448;44.960;-0.698;2023-01-15T15:24:14;10.13;;;1.80;;
46717;SDS011;32448;44.960;-0.698;2023-01-15T15:26:50;11.25;;;1.92;;
46717;SDS011;32448;44.960;-0.698;2023-01-15T15:29:18;17.98;;;3.20;;
46717;SDS011;32448;44.960;-0.698;2023-01-15T15:34:32;10.90;;;1.75;;
46717;SDS011;32448;44.960;-0.698;2023-01-15T15:37:42;11.13;;;1.70;;
46717;SDS011;32448;44.960;-0.698;2023-01-15T15:40:02;15.82;;;2.45;;
46717;SDS011;32448;44.960;-0.698;2023-01-15T15:42:40;12.70;;;2.08;;
46717;SDS011;32448;44.960;-0.698;2023-01-15T15:45:33;10.00;;;2.05;;
46717;SDS011;32448;44.960;-0.698;2023-01-15T15:48:29;15.07;;;2.63;;
46717;SDS011;32448;44.960;-0.698;2023-01-15T15:51:26;11.23;;;2.03;;
46717;SDS011;32448;44.960;-0.698;2023-01-15T15:54:13;16.52;;;4.80;;
46717;SDS011;32448;44.960;-0.698;2023-01-15T15:59:55;23.08;;;8.68;;
46717;SDS011;32448;44.960;-0.698;2023-01-15T16:08:21;63.38;;;23.55;;
46717;SDS011;32448;44.960;-0.698;2023-01-15T16:10:53;43.33;;;17.08;;
46717;SDS011;32448;44.960;-0.698;2023-01-15T16:16:02;38.45;;;15.05;;
46717;SDS011;32448;44.960;-0.698;2023-01-15T16:18:35;36.65;;;12.15;;
46717;SDS011;32448;44.960;-0.698;2023-01-15T16:21:07;26.42;;;9.65;;
46717;SDS011;32448;44.960;-0.698;2023-01-15T16:23:37;10.57;;;3.55;;
46717;SDS011;32448;44.960;-0.698;2023-01-15T16:26:16;17.03;;;4.23;;
46717;SDS011;32448;44.960;-0.698;2023-01-15T16:28:52;11.68;;;2.80;;
46717;SDS011;32448;44.960;-0.698;2023-01-15T16:31:22;10.65;;;2.50;;
46717;SDS011;32448;44.960;-0.698;2023-01-15T16:33:54;6.25;;;1.83;;
46717;SDS011;32448;44.960;-0.698;2023-01-15T16:36:24;5.13;;;1.65;;
46717;SDS011;32448;44.960;-0.698;2023-01-15T16:38:53;13.60;;;5.57;;
46717;SDS011;32448;44.960;-0.698;2023-01-15T16:41:36;10.60;;;4.80;;
46717;SDS011;32448;44.960;-0.698;2023-01-15T16:44:10;7.25;;;2.63;;
46717;SDS011;32448;44.960;-0.698;2023-01-15T16:47:02;4.97;;;2.45;;
46717;SDS011;32448;44.960;-0.698;2023-01-15T16:49:32;6.68;;;2.22;;
46717;SDS011;32448;44.960;-0.698;2023-01-15T16:52:00;8.02;;;2.65;;
46717;SDS011;32448;44.960;-0.698;2023-01-15T16:57:00;20.45;;;8.45;;
46717;SDS011;32448;44.960;-0.698;2023-01-15T17:02:03;26.75;;;12.35;;
46717;SDS011;32448;44.960;-0.698;2023-01-15T17:04:39;23.80;;;12.55;;
46717;SDS011;32448;44.960;-0.698;2023-01-15T17:09:46;15.50;;;5.78;;
46717;SDS011;32448;44.960;-0.698;2023-01-15T17:12:26;9.15;;;3.50;;
46717;SDS011;32448;44.960;-0.698;2023-01-15T17:15:43;17.90;;;6.32;;
46717;SDS011;32448;44.960;-0.698;2023-01-15T17:17:51;18.60;;;5.43;;
46717;SDS011;32448;44.960;-0.698;2023-01-15T17:20:22;12.40;;;4.10;;
46717;SDS011;32448;44.960;-0.698;2023-01-15T17:22:53;9.13;;;3.38;;
46717;SDS011;32448;44.960;-0.698;2023-01-15T17:25:23;10.95;;;3.90;;
46717;SDS011;32448;44.960;-0.698;2023-01-15T17:27:54;11.13;;;4.90;;